Time;durP1;ratioP1;P1;durP2;ratioP2;P2;SDS_P1;SDS_P2;PMS_P1;PMS_P2;Temp;Humidity;BMP_temperature;BMP_pressure;BME280_temperature;BME280_humidity;BME280_pressure;Samples;Min_cycle;Max_cycle;Signal;HPM_P1;HPM_P2
2021/09/12 00:01:49;;;;;;;36.70;21.05;;;;;;;12.88;80.21;98950.52;2271613;77;21332;-80
2021/09/12 00:04:49;;;;;;;30.82;20.82;;;;;;;12.86;80.14;98954.88;2261500;78;21023;-80
2021/09/12 00:07:50;;;;;;;30.70;20.17;;;;;;;12.91;80.36;98954.03;2260521;78;20983;-80
2021/09/12 00:10:50;;;;;;;32.70;21.23;;;;;;;12.91;80.17;98947.48;2257415;78;20991;-81
2021/09/12 00:13:51;;;;;;;30.25;21.27;;;;;;;12.89;80.20;98954.45;2296729;77;21003;-80
2021/09/12 00:16:52;;;;;;;29.40;21.07;;;;;;;12.91;80.25;98950.53;2285254;77;21281;-81
2021/09/12 00:19:52;;;;;;;39.20;23.45;;;;;;;12.93;80.28;98948.36;2285419;77;20988;-80
2021/09/12 00:22:53;;;;;;;31.23;22.30;;;;;;;12.91;80.38;98947.48;2295743;77;21008;-80
2021/09/12 00:25:53;;;;;;;35.63;22.87;;;;;;;12.90;80.61;98951.40;2276448;77;20963;-80
2021/09/12 00:28:54;;;;;;;34.65;22.48;;;;;;;12.90;80.80;98946.16;2272078;78;20957;-81
2021/09/12 00:31:54;;;;;;;34.38;23.80;;;;;;;12.88;80.79;98948.77;2273751;78;20971;-81
2021/09/12 00:34:55;;;;;;;40.73;23.22;;;;;;;12.84;80.72;98945.70;2294821;77;20990;-80
2021/09/12 00:37:56;;;;;;;37.95;22.13;;;;;;;12.87;80.95;98949.64;2270793;77;20976;-81
2021/09/12 00:40:56;;;;;;;34.40;22.07;;;;;;;12.86;81.02;98947.02;2276917;77;20955;-81
2021/09/12 00:43:57;;;;;;;40.67;22.95;;;;;;;12.85;81.07;98942.21;2272373;77;21458;-81
2021/09/12 00:46:57;;;;;;;33.13;21.50;;;;;;;12.85;81.09;98946.14;2276711;78;20971;-80
2021/09/12 00:49:58;;;;;;;34.58;22.62;;;;;;;12.88;81.14;98950.52;2290804;77;20995;-81
2021/09/12 00:52:58;;;;;;;33.18;23.45;;;;;;;12.95;81.65;98962.78;2274265;78;20928;-80
2021/09/12 00:56:00;;;;;;;31.48;22.37;;;;;;;13.05;81.89;98958.92;2257529;78;20963;-81
2021/09/12 00:59:00;;;;;;;33.70;22.50;;;;;;;13.08;81.51;98952.81;2293746;77;21149;-81
2021/09/12 01:02:01;;;;;;;31.75;22.50;;;;;;;13.11;81.46;98955.88;2281797;77;20920;-81
2021/09/12 01:05:02;;;;;;;31.17;21.42;;;;;;;13.19;81.58;98946.33;2272991;78;21383;-81
2021/09/12 01:08:02;;;;;;;33.70;21.27;;;;;;;13.25;81.56;98949.84;2252392;78;21315;-81
2021/09/12 01:11:02;;;;;;;33.67;20.77;;;;;;;13.28;81.46;98947.67;2274728;78;20956;-81
2021/09/12 01:14:03;;;;;;;32.78;20.43;;;;;;;13.29;81.42;98945.05;2283149;77;21091;-81
2021/09/12 01:17:03;;;;;;;28.98;20.35;;;;;;;13.32;81.41;98947.68;2289575;77;20999;-81
2021/09/12 01:20:04;;;;;;;30.48;20.68;;;;;;;13.34;81.39;98947.25;2270761;77;20996;-81
2021/09/12 01:23:06;;;;;;;25.20;19.02;;;;;;;13.32;81.20;98948.98;2295459;77;20967;-81
2021/09/12 01:26:07;;;;;;;28.98;19.57;;;;;;;13.30;81.17;98948.55;2281614;77;21004;-81
2021/09/12 01:29:07;;;;;;;26.62;19.82;;;;;;;13.28;81.08;98953.78;2294031;77;20991;-80
2021/09/12 01:32:08;;;;;;;29.40;19.82;;;;;;;13.29;81.08;98956.84;2273236;77;20960;-80
2021/09/12 01:35:08;;;;;;;26.85;19.82;;;;;;;13.20;80.72;98953.33;2264057;77;20968;-81
2021/09/12 01:38:09;;;;;;;29.72;20.30;;;;;;;13.13;80.77;98957.64;2264390;77;20987;-80
2021/09/12 01:41:09;;;;;;;32.63;19.45;;;;;;;13.07;80.91;98953.69;2294563;77;21367;-80
2021/09/12 01:44:11;;;;;;;26.00;19.55;;;;;;;13.04;80.87;98954.98;2280961;77;20947;-81
2021/09/12 01:47:11;;;;;;;29.30;19.02;;;;;;;12.98;80.87;98958.42;2272796;77;20947;-80
2021/09/12 01:50:12;;;;;;;31.02;19.62;;;;;;;12.91;80.73;98952.72;2254596;77;21362;-80
2021/09/12 01:53:12;;;;;;;31.60;19.48;;;;;;;12.84;80.75;98957.92;2248242;78;20995;-80
2021/09/12 01:56:13;;;;;;;33.38;19.62;;;;;;;12.76;80.87;98957.45;2257718;77;20955;-81
2021/09/12 01:59:13;;;;;;;31.73;19.77;;;;;;;12.73;80.96;98954.82;2294287;78;20984;-80
2021/09/12 02:02:14;;;;;;;27.52;19.50;;;;;;;12.68;80.95;98946.06;2289971;77;21335;-80
2021/09/12 02:05:14;;;;;;;32.10;19.57;;;;;;;12.61;80.88;98942.97;2292234;78;21299;-81
2021/09/12 02:08:15;;;;;;;28.30;19.77;;;;;;;12.57;81.01;98949.50;2291993;77;20932;-80
2021/09/12 02:11:15;;;;;;;27.77;19.42;;;;;;;12.51;81.05;98952.95;2296210;77;20999;-80
2021/09/12 02:14:16;;;;;;;28.90;20.20;;;;;;;12.48;81.17;98953.38;2255300;77;20998;-80
2021/09/12 02:17:16;;;;;;;28.45;19.57;;;;;;;12.48;81.19;98957.30;2287523;77;20947;-81
2021/09/12 02:20:17;;;;;;;31.47;20.37;;;;;;;12.48;81.23;98959.91;2268729;78;20959;-81
2021/09/12 02:23:17;;;;;;;24.30;18.73;;;;;;;12.44;81.10;98956.41;2292655;77;21008;-81
2021/09/12 02:26:18;;;;;;;29.32;19.95;;;;;;;12.38;81.07;98952.44;2263093;77;21122;-81
2021/09/12 02:29:18;;;;;;;24.12;18.73;;;;;;;12.34;81.07;98951.98;2254491;77;20984;-81
2021/09/12 02:32:19;;;;;;;27.45;18.55;;;;;;;12.28;81.01;98950.63;2278341;77;21328;-81
2021/09/12 02:35:19;;;;;;;26.62;18.15;;;;;;;12.23;81.11;98948.41;2283002;77;20951;-81
2021/09/12 02:38:20;;;;;;;24.85;18.82;;;;;;;12.19;81.17;98940.09;2280749;78;20963;-81
2021/09/12 02:41:20;;;;;;;25.52;18.67;;;;;;;12.16;81.31;98953.16;2279191;77;20948;-81
2021/09/12 02:44:21;;;;;;;23.95;17.48;;;;;;;12.14;81.43;98953.15;2279146;77;21003;-81
2021/09/12 02:47:21;;;;;;;28.45;17.17;;;;;;;12.13;81.33;98947.01;2292352;77;20928;-81
2021/09/12 02:50:22;;;;;;;26.10;17.77;;;;;;;12.08;81.27;98951.33;2275105;78;21356;-81
2021/09/12 02:53:22;;;;;;;22.77;17.98;;;;;;;12.07;81.39;98950.89;2270597;77;20947;-81
2021/09/12 02:56:23;;;;;;;26.97;19.48;;;;;;;12.06;81.48;98946.95;2291816;78;20956;-82
2021/09/12 02:59:23;;;;;;;26.80;18.52;;;;;;;12.04;81.47;98947.38;2267476;78;20999;-81
2021/09/12 03:02:24;;;;;;;25.68;19.40;;;;;;;11.98;81.29;98942.97;2248316;78;20936;-80
2021/09/12 03:05:24;;;;;;;29.02;18.37;;;;;;;11.96;81.46;98942.52;2275885;78;20947;-82
2021/09/12 03:08:25;;;;;;;28.67;19.00;;;;;;;11.94;81.56;98938.58;2276397;77;21335;-82
2021/09/12 03:11:26;;;;;;;30.37;19.52;;;;;;;11.90;81.42;98940.72;2286106;77;20940;-81
2021/09/12 03:14:26;;;;;;;25.25;18.87;;;;;;;11.92;81.77;98945.54;2272669;77;20979;-81
2021/09/12 03:17:26;;;;;;;28.57;18.60;;;;;;;11.93;81.93;98937.26;2288080;77;20947;-81
2021/09/12 03:20:27;;;;;;;26.37;19.27;;;;;;;11.94;81.95;98936.39;2268079;77;20968;-82
2021/09/12 03:23:27;;;;;;;29.63;20.23;;;;;;;11.97;82.09;98942.53;2290947;77;21299;-81
2021/09/12 03:26:28;;;;;;;25.10;19.17;;;;;;;11.98;82.18;98942.97;2282544;77;20955;-81
2021/09/12 03:29:29;;;;;;;31.80;20.08;;;;;;;12.00;81.99;98945.16;2264420;77;20971;-82
2021/09/12 03:32:29;;;;;;;30.52;20.68;;;;;;;12.02;82.03;98950.41;2287427;78;20957;-81
2021/09/12 03:35:30;;;;;;;26.57;20.10;;;;;;;12.07;82.17;98955.25;2284507;77;20909;-81
2021/09/12 03:38:30;;;;;;;27.52;20.97;;;;;;;12.10;82.06;98954.84;2267556;77;21323;-81
2021/09/12 03:41:31;;;;;;;29.12;20.55;;;;;;;12.07;81.75;98958.73;2283490;77;20956;-81
2021/09/12 03:44:32;;;;;;;35.65;20.17;;;;;;;12.07;81.86;98960.05;2257626;77;20921;-80
2021/09/12 03:47:32;;;;;;;31.07;21.60;;;;;;;12.08;81.94;98963.11;2278397;78;21031;-80
2021/09/12 03:50:33;;;;;;;33.70;24.63;;;;;;;12.09;81.97;98963.55;2284862;78;20999;-80
2021/09/12 03:53:33;;;;;;;29.37;21.55;;;;;;;12.02;81.77;98960.44;2266429;78;20952;-80
2021/09/12 03:56:33;;;;;;;29.00;22.22;;;;;;;11.98;81.86;98957.36;2271766;78;20936;-80
2021/09/12 03:59:34;;;;;;;30.65;24.57;;;;;;;11.99;81.93;98956.49;2279178;77;21023;-80
2021/09/12 04:02:34;;;;;;;30.25;23.47;;;;;;;11.96;81.66;98959.09;2254172;78;21062;-80
2021/09/12 04:05:35;;;;;;;28.62;22.80;;;;;;;11.91;81.76;98958.61;2276678;77;20939;-80
2021/09/12 04:08:36;;;;;;;30.00;22.77;;;;;;;11.84;81.62;98956.37;2266498;77;21358;-80
2021/09/12 04:11:36;;;;;;;26.40;22.10;;;;;;;11.78;81.87;98955.01;2285161;77;21003;-80
2021/09/12 04:14:37;;;;;;;30.53;22.40;;;;;;;11.78;81.87;98960.23;2273097;77;21937;-80
2021/09/12 04:17:37;;;;;;;30.65;22.27;;;;;;;11.73;81.90;98957.98;2254401;77;20966;-80
2021/09/12 04:20:38;;;;;;;27.00;19.20;;;;;;;11.73;82.07;98957.98;2289978;77;20964;-80
2021/09/12 04:23:38;;;;;;;33.80;21.20;;;;;;;11.71;82.04;98962.32;2282880;77;21022;-81
2021/09/12 04:26:39;;;;;;;21.75;18.40;;;;;;;11.76;82.42;98965.85;2261198;78;20987;-80
2021/09/12 04:29:39;;;;;;;26.52;18.77;;;;;;;11.81;82.31;98953.73;2282150;77;20976;-80
2021/09/12 04:32:40;;;;;;;26.23;18.63;;;;;;;11.79;82.13;98962.87;2286219;78;20958;-80
2021/09/12 04:35:40;;;;;;;25.45;17.92;;;;;;;11.80;82.06;98965.05;2281992;78;20916;-79
2021/09/12 04:38:41;;;;;;;24.05;18.48;;;;;;;11.82;82.02;98965.06;2277199;78;20931;-79
2021/09/12 04:41:44;;;;;;;25.90;20.37;;;;;;;11.86;82.11;98959.00;2294280;78;21578;-81
2021/09/12 04:44:45;;;;;;;29.37;19.10;;;;;;;11.89;82.21;98966.44;2293422;77;20988;-82
2021/09/12 04:47:45;;;;;;;26.85;19.30;;;;;;;12.00;82.41;98966.09;2296055;77;20960;-82
2021/09/12 04:50:46;;;;;;;26.73;18.75;;;;;;;12.05;81.98;98965.70;2258440;78;20952;-82
2021/09/12 04:53:46;;;;;;;29.00;20.60;;;;;;;12.09;81.77;98970.09;2285727;78;20960;-82
2021/09/12 04:56:47;;;;;;;28.07;19.95;;;;;;;12.16;81.79;98966.25;2269253;77;20992;-82
2021/09/12 04:59:47;;;;;;;25.27;19.92;;;;;;;12.23;81.77;98966.73;2287253;77;20951;-81
2021/09/12 05:02:48;;;;;;;24.98;20.82;;;;;;;12.37;81.77;98969.02;2274272;78;20988;-80
2021/09/12 05:05:48;;;;;;;27.25;20.35;;;;;;;12.51;81.52;98970.41;2261679;78;20920;-80
2021/09/12 05:08:49;;;;;;;26.52;19.67;;;;;;;12.64;81.48;98969.17;2263423;77;20947;-81
2021/09/12 05:11:49;;;;;;;26.80;20.70;;;;;;;12.81;81.39;98977.56;2255279;78;20964;-81
2021/09/12 05:14:50;;;;;;;32.25;23.77;;;;;;;12.98;81.17;98968.03;2286388;77;20939;-80
2021/09/12 05:17:50;;;;;;;28.83;21.33;;;;;;;13.10;81.03;98973.78;2297873;77;21367;-79
2021/09/12 05:20:51;;;;;;;29.05;20.82;;;;;;;13.23;80.72;98972.56;2248394;78;20979;-80
2021/09/12 05:23:51;;;;;;;34.88;20.23;;;;;;;13.43;80.69;98969.98;2278851;77;20999;-79
2021/09/12 05:26:52;;;;;;;30.37;21.07;;;;;;;13.60;80.30;98972.64;2279935;77;20990;-79
2021/09/12 05:29:52;;;;;;;27.52;19.90;;;;;;;13.80;80.11;98972.67;2280522;78;20983;-79
2021/09/12 05:32:53;;;;;;;26.93;19.70;;;;;;;14.06;80.14;98971.41;2273179;78;21307;-79
2021/09/12 05:35:53;;;;;;;31.37;19.40;;;;;;;14.26;80.05;98969.20;2282070;77;20967;-79
2021/09/12 05:38:54;;;;;;;25.08;19.75;;;;;;;14.47;80.08;98970.08;2257521;77;20916;-79
2021/09/12 05:41:54;;;;;;;24.02;19.67;;;;;;;14.68;79.95;98973.10;2271108;77;20970;-79
2021/09/12 05:44:55;;;;;;;27.67;19.87;;;;;;;14.86;79.58;98968.70;2254434;77;20935;-79
2021/09/12 05:47:55;;;;;;;26.90;20.02;;;;;;;15.01;79.34;98966.89;2276487;78;20927;-79
2021/09/12 05:50:55;;;;;;;27.58;19.80;;;;;;;15.23;79.71;98969.42;2254883;77;21415;-79
2021/09/12 05:53:56;;;;;;;28.02;20.15;;;;;;;15.75;79.46;98960.41;2271936;78;21090;-79
2021/09/12 05:56:56;;;;;;;28.00;21.73;;;;;;;15.75;79.46;98960.41;2289715;78;20929;-79
2021/09/12 05:59:57;;;;;;;28.30;21.00;;;;;;;15.96;78.63;98959.38;2292348;77;21116;-79
2021/09/12 06:02:57;;;;;;;25.62;20.50;;;;;;;16.19;79.16;98957.42;2262281;77;21004;-80
2021/09/12 06:05:58;;;;;;;26.73;17.95;;;;;;;16.50;79.05;98959.35;2267684;77;21379;-77
2021/09/12 06:08:58;;;;;;;24.00;19.52;;;;;;;16.81;79.10;98957.29;2247437;78;20968;-79
2021/09/12 06:11:59;;;;;;;28.42;22.00;;;;;;;17.10;78.83;98959.58;2292339;77;20960;-80
2021/09/12 06:14:59;;;;;;;31.42;20.20;;;;;;;17.38;78.80;98959.67;2257387;77;21042;-80
2021/09/12 06:18:00;;;;;;;29.07;21.35;;;;;;;17.66;78.48;98960.60;2276648;77;20955;-80
2021/09/12 06:21:00;;;;;;;34.85;27.25;;;;;;;17.96;77.38;98964.57;2255273;78;20975;-81
2021/09/12 06:24:01;;;;;;;32.67;26.00;;;;;;;18.21;77.36;98960.66;2279621;78;21311;-80
2021/09/12 06:27:01;;;;;;;32.60;26.85;;;;;;;18.48;76.81;98968.55;2287040;77;21295;-80
2021/09/12 06:30:02;;;;;;;31.70;27.30;;;;;;;18.74;75.89;98968.10;2269568;78;21023;-81
2021/09/12 06:33:02;;;;;;;30.92;27.13;;;;;;;18.91;75.17;98972.61;2270186;77;20927;-80
2021/09/12 06:36:03;;;;;;;30.72;25.80;;;;;;;19.11;74.62;98975.34;2283366;77;20944;-79
2021/09/12 06:39:03;;;;;;;37.58;27.82;;;;;;;19.22;74.18;98974.22;2271940;77;21415;-80
2021/09/12 06:42:04;;;;;;;33.18;26.37;;;;;;;19.24;73.86;98984.32;2284577;78;21329;-80
2021/09/12 06:45:07;;;;;;;31.25;25.17;;;;;;;19.32;73.67;98976.22;2281262;77;20968;-80
2021/09/12 06:48:07;;;;;;;30.27;24.67;;;;;;;19.52;72.94;98981.08;2276429;78;20996;-80
2021/09/12 06:51:08;;;;;;;28.42;25.52;;;;;;;19.66;72.62;98978.58;2290312;77;20940;-80
2021/09/12 06:54:09;;;;;;;30.70;22.25;;;;;;;19.97;72.20;98980.09;2266820;78;20966;-78
2021/09/12 06:57:09;;;;;;;27.37;23.35;;;;;;;20.18;71.52;98977.38;2285938;78;21312;-78
2021/09/12 07:00:10;;;;;;;26.52;21.85;;;;;;;20.50;71.03;98978.37;2265111;77;20952;-78
2021/09/12 07:03:10;;;;;;;25.68;20.25;;;;;;;20.52;70.25;98978.74;2264473;77;20944;-78
2021/09/12 07:06:11;;;;;;;25.62;22.05;;;;;;;20.49;69.56;98984.12;2300917;77;20960;-78
2021/09/12 07:09:11;;;;;;;22.52;19.57;;;;;;;20.49;69.71;98977.95;2300631;77;20956;-78
2021/09/12 07:12:12;;;;;;;21.33;19.05;;;;;;;20.58;69.71;98983.02;2265161;77;20983;-78
2021/09/12 07:15:12;;;;;;;22.48;19.92;;;;;;;20.63;69.16;98980.66;2285096;77;20912;-78
2021/09/12 07:18:13;;;;;;;23.60;18.20;;;;;;;20.77;69.15;98981.61;2271992;78;20991;-78
2021/09/12 07:21:13;;;;;;;20.85;18.77;;;;;;;21.17;69.01;98982.73;2261162;78;20998;-78
2021/09/12 07:24:14;;;;;;;19.50;17.42;;;;;;;21.66;68.27;98985.74;2291982;78;20975;-78
2021/09/12 07:27:14;;;;;;;18.23;15.75;;;;;;;22.05;67.22;98989.88;2291756;77;20964;-77
2021/09/12 07:30:15;;;;;;;18.05;16.25;;;;;;;22.32;65.21;98989.42;2278751;78;20983;-78
2021/09/12 07:33:15;;;;;;;16.15;14.60;;;;;;;22.51;64.46;98987.02;2254302;77;21030;-78
2021/09/12 07:36:16;;;;;;;14.30;12.20;;;;;;;22.80;64.16;98982.94;2269332;78;21311;-78
2021/09/12 07:39:16;;;;;;;14.38;12.88;;;;;;;23.14;63.13;98985.72;2288014;77;21347;-79
2021/09/12 07:42:17;;;;;;;13.55;12.28;;;;;;;23.40;62.24;98988.28;2277759;78;20963;-79
2021/09/12 07:45:17;;;;;;;14.93;12.00;;;;;;;23.30;61.77;98986.02;2265802;78;20956;-78
2021/09/12 07:48:18;;;;;;;15.40;13.55;;;;;;;23.36;60.93;98986.66;2287932;77;20963;-79
2021/09/12 07:51:18;;;;;;;14.38;11.68;;;;;;;23.41;61.28;98982.05;2274176;78;20959;-79
2021/09/12 07:54:18;;;;;;;11.10;9.95;;;;;;;23.63;60.18;98995.45;2272088;78;20904;-79
2021/09/12 07:57:19;;;;;;;12.98;11.57;;;;;;;23.97;60.10;98989.66;2254947;77;21328;-79
2021/09/12 08:00:19;;;;;;;17.15;11.55;;;;;;;24.23;58.48;98988.60;2248172;78;20947;-78
2021/09/12 08:03:20;;;;;;;11.88;10.82;;;;;;;24.50;57.88;98990.65;2285170;78;21004;-79
2021/09/12 08:06:21;;;;;;;12.70;10.93;;;;;;;24.49;57.47;98986.25;2289739;77;20949;-79
2021/09/12 08:09:22;;;;;;;12.20;10.93;;;;;;;24.54;58.04;98988.25;2254890;77;21284;-79
2021/09/12 08:12:23;;;;;;;13.30;12.10;;;;;;;24.73;57.74;99001.21;2260973;78;20947;-78
2021/09/12 08:15:23;;;;;;;17.62;12.03;;;;;;;24.62;56.72;98999.94;2274972;78;20960;-78
2021/09/12 08:18:24;;;;;;;14.05;11.60;;;;;;;24.27;58.24;99000.91;2265690;77;20983;-78
2021/09/12 08:21:24;;;;;;;12.40;11.22;;;;;;;24.13;57.77;99007.25;2294910;77;20952;-78
2021/09/12 08:24:25;;;;;;;13.30;11.93;;;;;;;23.98;58.49;99003.86;2285181;78;20945;-78
2021/09/12 08:27:25;;;;;;;13.00;11.73;;;;;;;23.86;58.77;98998.55;2288353;77;21046;-78
2021/09/12 08:30:26;;;;;;;15.15;13.43;;;;;;;23.94;58.75;98997.78;2277908;78;20960;-78
2021/09/12 08:33:27;;;;;;;18.62;12.58;;;;;;;23.86;58.86;98994.55;2286461;77;20952;-78
2021/09/12 08:36:27;;;;;;;12.63;11.48;;;;;;;23.99;59.16;98990.47;2293234;77;21352;-79
2021/09/12 08:39:28;;;;;;;12.45;10.03;;;;;;;24.00;58.69;98989.54;2257871;78;21442;-78
2021/09/12 08:42:28;;;;;;;10.45;9.45;;;;;;;23.83;58.88;99002.67;2247234;78;20964;-78
2021/09/12 08:45:29;;;;;;;10.43;9.30;;;;;;;23.82;58.84;99004.94;2256031;78;21052;-78
2021/09/12 08:48:29;;;;;;;12.53;9.38;;;;;;;23.78;59.25;98993.98;2269974;78;20948;-79
2021/09/12 08:51:30;;;;;;;12.28;10.90;;;;;;;23.83;58.86;99000.01;2272245;77;21356;-78
2021/09/12 08:54:30;;;;;;;10.32;8.00;;;;;;;23.81;58.96;98995.20;2280447;77;21008;-79
2021/09/12 08:57:31;;;;;;;9.55;8.75;;;;;;;23.87;58.86;98994.95;2280344;78;20924;-79
2021/09/12 09:00:31;;;;;;;8.70;7.90;;;;;;;23.94;57.95;98990.25;2282773;78;21308;-79
2021/09/12 09:03:32;;;;;;;9.13;8.35;;;;;;;23.86;58.36;98991.02;2285367;78;20983;-79
2021/09/12 09:06:32;;;;;;;7.70;7.00;;;;;;;23.85;59.10;98996.81;2251968;78;20924;-78
2021/09/12 09:09:33;;;;;;;7.85;7.15;;;;;;;23.83;58.49;98986.68;2248215;78;20939;-79
2021/09/12 09:12:33;;;;;;;9.63;7.85;;;;;;;23.77;58.09;98992.25;2272465;77;21006;-79
2021/09/12 09:15:34;;;;;;;7.87;7.15;;;;;;;23.72;58.81;98995.56;2263113;77;20956;-79
2021/09/12 09:18:34;;;;;;;8.95;8.05;;;;;;;23.84;58.30;98989.75;2297984;77;21042;-78
2021/09/12 09:21:35;;;;;;;8.20;7.50;;;;;;;24.07;58.73;98987.03;2204943;80;20976;-79
2021/09/12 09:24:35;;;;;;;7.75;7.05;;;;;;;24.40;58.18;98991.50;2201420;80;20984;-79
2021/09/12 09:27:36;;;;;;;7.22;6.62;;;;;;;24.54;56.52;98988.25;2229357;79;20999;-78
2021/09/12 09:30:36;;;;;;;6.90;6.22;;;;;;;24.54;56.59;98988.25;2174316;80;20983;-79
2021/09/12 09:33:37;;;;;;;6.65;6.10;;;;;;;24.63;56.43;98985.19;2196081;80;21391;-78
2021/09/12 09:36:39;;;;;;;6.95;6.12;;;;;;;24.72;56.17;98986.13;2183346;80;20968;-79
2021/09/12 09:39:41;;;;;;;5.42;5.03;;;;;;;24.84;55.86;98991.40;2184652;80;21441;-78
2021/09/12 09:42:41;;;;;;;5.67;5.17;;;;;;;24.90;54.84;98988.92;2177675;80;20959;-79
2021/09/12 09:45:42;;;;;;;6.28;5.70;;;;;;;24.82;54.50;98983.92;2185961;80;20960;-79
2021/09/12 09:48:42;;;;;;;5.72;5.33;;;;;;;24.90;54.93;98976.45;2211075;80;21040;-79
2021/09/12 09:51:43;;;;;;;6.22;5.55;;;;;;;24.97;55.33;98983.28;2209388;80;20971;-79
2021/09/12 09:54:43;;;;;;;6.00;5.42;;;;;;;25.16;54.45;98981.16;2197220;80;21383;-79
2021/09/12 09:57:44;;;;;;;6.60;6.00;;;;;;;25.23;53.13;98975.47;2186894;80;21375;-78
2021/09/12 10:00:44;;;;;;;6.22;5.70;;;;;;;25.11;53.95;98980.47;2257027;77;20991;-78
2021/09/12 10:03:45;;;;;;;6.85;6.22;;;;;;;25.11;53.61;98972.45;2281558;77;20928;-79
2021/09/12 10:06:46;;;;;;;6.25;5.72;;;;;;;25.22;53.30;98975.06;2191766;81;21002;-79
2021/09/12 10:09:46;;;;;;;6.70;6.10;;;;;;;25.15;53.72;98970.94;2198702;80;20971;-79
2021/09/12 10:12:48;;;;;;;7.10;6.40;;;;;;;25.15;53.67;98972.74;2192678;80;21032;-79
2021/09/12 10:15:48;;;;;;;6.92;6.33;;;;;;;25.19;52.86;98963.19;2183299;80;21301;-79
2021/09/12 10:18:49;;;;;;;6.72;6.12;;;;;;;25.12;52.63;98967.04;2188882;80;20977;-78
2021/09/12 10:21:49;;;;;;;7.30;6.60;;;;;;;24.91;53.64;98969.30;2196674;80;20924;-77
2021/09/12 10:24:50;;;;;;;7.87;7.17;;;;;;;24.81;53.24;98970.17;2191163;80;21343;-78
2021/09/12 10:27:50;;;;;;;6.60;6.00;;;;;;;24.99;53.20;98965.86;2176821;80;21011;-79
2021/09/12 10:30:51;;;;;;;6.50;5.87;;;;;;;24.77;52.69;98972.11;2187523;80;20972;-78
2021/09/12 10:33:51;;;;;;;6.78;6.17;;;;;;;24.76;52.99;98963.70;2187469;80;20936;-79
2021/09/12 10:36:51;;;;;;;7.87;6.30;;;;;;;24.72;53.21;98958.10;2174171;80;20996;-78
2021/09/12 10:39:52;;;;;;;6.33;5.72;;;;;;;24.69;53.91;98954.70;2197099;80;20971;-79
2021/09/12 10:42:53;;;;;;;7.05;5.17;;;;;;;24.95;52.98;98947.73;2203234;80;20941;-79
2021/09/12 10:45:53;;;;;;;6.12;5.53;;;;;;;25.23;51.54;98945.21;2199128;80;20967;-78
2021/09/12 10:48:53;;;;;;;7.20;5.67;;;;;;;25.34;51.10;98945.11;2189550;80;21007;-78
2021/09/12 10:51:54;;;;;;;7.47;5.53;;;;;;;25.59;51.43;98941.29;2208883;80;21007;-78
2021/09/12 10:54:54;;;;;;;5.70;5.08;;;;;;;25.76;50.77;98938.70;2183141;80;21339;-78
2021/09/12 10:57:55;;;;;;;6.42;5.83;;;;;;;25.95;50.83;98930.18;2173228;80;20964;-79
2021/09/12 11:00:55;;;;;;;5.75;5.25;;;;;;;25.84;50.59;98925.83;2173767;80;20972;-79
2021/09/12 11:03:59;;;;;;;6.28;5.28;;;;;;;26.02;50.06;98926.77;2182237;80;21023;-79
2021/09/12 11:07:01;;;;;;;5.37;4.90;;;;;;;25.96;49.33;98921.22;2233359;79;21026;-79
2021/09/12 11:10:01;;;;;;;5.22;4.80;;;;;;;25.63;49.10;98926.37;2245291;79;21182;-78
2021/09/12 11:13:01;;;;;;;4.78;4.37;;;;;;;25.62;49.88;98919.76;2239544;79;20972;-78
2021/09/12 11:16:01;;;;;;;4.40;4.10;;;;;;;25.97;49.11;98914.92;2242396;79;21328;-78
2021/09/12 11:19:02;;;;;;;4.67;4.37;;;;;;;26.13;48.42;98914.19;2224079;79;21026;-78
2021/09/12 11:22:02;;;;;;;4.70;4.30;;;;;;;26.07;47.78;98909.15;2242673;79;20948;-79
2021/09/12 11:25:03;;;;;;;4.40;4.10;;;;;;;26.21;48.44;98908.84;2252433;79;20940;-78
2021/09/12 11:28:04;;;;;;;4.72;4.33;;;;;;;26.45;47.50;98896.05;2245166;79;20964;-78
2021/09/12 11:31:04;;;;;;;5.47;4.97;;;;;;;26.41;47.83;98898.50;2234224;79;20923;-78
2021/09/12 11:34:05;;;;;;;5.00;4.70;;;;;;;26.33;47.30;98892.67;2229329;79;21352;-79
2021/09/12 11:37:05;;;;;;;6.83;4.78;;;;;;;26.50;48.04;98892.66;2243910;79;21624;-78
2021/09/12 11:40:06;;;;;;;4.85;4.45;;;;;;;26.57;46.59;98891.40;2234686;79;21010;-79
2021/09/12 11:43:07;;;;;;;4.75;4.30;;;;;;;26.26;47.75;98889.41;2228069;79;20927;-79
2021/09/12 11:46:10;;;;;;;4.95;4.45;;;;;;;26.34;47.88;98882.36;2232490;79;21022;-80
2021/09/12 11:49:09;;;;;;;5.60;4.97;;;;;;;26.71;47.79;98878.63;2235830;79;21056;-78
2021/09/12 11:52:10;;;;;;;5.60;5.10;;;;;;;26.59;47.20;98882.81;2232426;79;21331;-79
2021/09/12 11:55:10;;;;;;;5.58;5.17;;;;;;;26.69;46.80;98880.98;2223804;79;20992;-79
2021/09/12 11:58:11;;;;;;;5.37;4.87;;;;;;;26.95;47.49;98880.02;2245501;79;21025;-80
2021/09/12 12:01:11;;;;;;;5.60;5.10;;;;;;;27.45;47.45;98876.86;2229478;79;20959;-78
2021/09/12 12:04:12;;;;;;;6.40;5.10;;;;;;;27.88;46.70;98869.49;2249874;79;20995;-79
2021/09/12 12:07:12;;;;;;;5.95;5.33;;;;;;;28.27;45.89;98868.13;2251640;79;20956;-79
2021/09/12 12:10:13;;;;;;;7.00;5.22;;;;;;;28.67;44.37;98865.73;2247124;79;21387;-79
2021/09/12 12:13:13;;;;;;;5.47;4.97;;;;;;;28.60;44.11;98864.35;2232542;79;20919;-79
2021/09/12 12:16:14;;;;;;;65.60;6.55;;;;;;;28.70;43.89;98864.20;2240324;79;20999;-79
2021/09/12 12:19:15;;;;;;;4.90;3.90;;;;;;;27.90;44.04;98871.61;2244228;79;21019;-81
2021/09/12 12:22:15;;;;;;;2.77;2.58;;;;;;;26.71;45.42;98880.44;2265132;77;20968;-81
2021/09/12 12:25:16;;;;;;;4.78;2.47;;;;;;;25.59;46.67;98891.84;2176401;81;20913;-81
2021/09/12 12:28:17;;;;;;;8.75;3.20;;;;;;;24.81;46.60;98890.09;2200525;80;20999;-80
2021/09/12 12:31:17;;;;;;;9.35;4.08;;;;;;;24.35;49.81;98889.45;2242740;79;20979;-81
2021/09/12 12:34:18;;;;;;;9.38;5.62;;;;;;;23.87;53.35;98894.13;2196938;80;20980;-79
2021/09/12 12:37:18;;;;;;;7.20;5.25;;;;;;;23.60;56.11;98900.11;2203447;80;20960;-81
2021/09/12 12:40:19;;;;;;;6.15;4.03;;;;;;;23.35;56.92;98906.34;2201008;80;21000;-80
2021/09/12 12:43:19;;;;;;;8.15;4.85;;;;;;;23.24;57.61;98889.91;2171462;80;20967;-81
2021/09/12 12:46:20;;;;;;;11.90;5.65;;;;;;;23.37;58.48;98894.30;2190410;80;21008;-81
2021/09/12 12:49:20;;;;;;;9.03;4.95;;;;;;;23.36;59.44;98891.23;2185476;80;21030;-80
2021/09/12 12:52:20;;;;;;;5.85;4.50;;;;;;;23.25;59.50;98889.45;2181796;80;20932;-80
2021/09/12 12:55:21;;;;;;;6.62;4.37;;;;;;;23.40;60.03;98887.05;2176403;80;20956;-80
2021/09/12 12:58:21;;;;;;;6.80;3.92;;;;;;;23.55;60.03;98886.98;2177105;80;20981;-80
2021/09/12 13:01:22;;;;;;;4.03;3.30;;;;;;;23.65;59.40;98895.00;2190155;80;21336;-81
2021/09/12 13:04:22;;;;;;;5.58;3.90;;;;;;;23.60;58.87;98897.45;2184050;80;20980;-80
2021/09/12 13:07:23;;;;;;;5.62;3.60;;;;;;;23.59;59.47;98899.25;2187136;80;20992;-81
2021/09/12 13:10:23;;;;;;;6.55;4.10;;;;;;;23.82;59.82;98896.52;2204760;80;20977;-81
2021/09/12 13:13:24;;;;;;;7.22;3.47;;;;;;;23.96;59.17;98889.75;2184231;80;21015;-81
2021/09/12 13:16:24;;;;;;;8.88;3.90;;;;;;;24.02;58.03;98890.36;2184411;80;20948;-80
2021/09/12 13:19:25;;;;;;;6.90;3.90;;;;;;;24.06;58.78;98878.63;2173253;80;21387;-81
2021/09/12 13:22:25;;;;;;;5.47;3.98;;;;;;;24.15;57.50;98877.38;2195738;80;20956;-80
2021/09/12 13:25:26;;;;;;;5.35;3.98;;;;;;;24.25;58.56;98879.19;2174738;80;21031;-80
2021/09/12 13:28:27;;;;;;;9.13;4.40;;;;;;;24.46;57.53;98880.98;2189658;80;20975;-81
2021/09/12 13:31:31;;;;;;;5.25;4.60;;;;;;;24.51;57.91;98881.65;2200323;80;21078;-82
2021/09/12 13:34:29;;;;;;;8.53;4.58;;;;;;;24.45;57.85;98873.45;2227730;80;20965;-82
2021/09/12 13:37:30;;;;;;;4.97;4.58;;;;;;;24.50;58.16;98873.24;2223944;80;20925;-81
2021/09/12 13:40:30;;;;;;;4.60;4.30;;;;;;;24.63;58.47;98872.23;2198502;80;20929;-81
2021/09/12 13:43:31;;;;;;;5.65;4.58;;;;;;;24.81;58.34;98868.73;2207185;80;21034;-83
2021/09/12 13:46:32;;;;;;;8.88;5.90;;;;;;;24.84;56.37;98878.41;2199265;80;20976;-80
2021/09/12 13:49:32;;;;;;;5.97;4.62;;;;;;;24.67;57.46;98876.50;2195854;80;21059;-81
2021/09/12 13:52:33;;;;;;;7.75;5.00;;;;;;;24.95;57.48;98872.97;2208951;80;20960;-81
2021/09/12 13:55:34;;;;;;;7.10;5.03;;;;;;;24.82;57.78;98871.80;2210900;80;20981;-81
2021/09/12 13:58:34;;;;;;;5.90;5.45;;;;;;;24.92;57.82;98863.77;2270256;77;21404;-82